sensor_id;sensor_type;location;lat;lon;timestamp;P1;durP1;ratioP1;P2;durP2;ratioP2
69523;SDS011;56723;42.694;23.286;2023-03-26T00:01:22;0.30;;;0.00;;
69523;SDS011;56723;42.694;23.286;2023-03-26T00:03:51;0.30;;;0.10;;
69523;SDS011;56723;42.694;23.286;2023-03-26T00:06:20;0.40;;;0.10;;
69523;SDS011;56723;42.694;23.286;2023-03-26T00:11:16;1.27;;;0.40;;
69523;SDS011;56723;42.694;23.286;2023-03-26T00:13:45;1.75;;;0.30;;
69523;SDS011;56723;42.694;23.286;2023-03-26T00:16:14;0.80;;;0.20;;
69523;SDS011;56723;42.694;23.286;2023-03-26T00:21:11;1.07;;;0.33;;
69523;SDS011;56723;42.694;23.286;2023-03-26T00:23:40;0.60;;;0.23;;
69523;SDS011;56723;42.694;23.286;2023-03-26T00:26:08;1.13;;;0.10;;
69523;SDS011;56723;42.694;23.286;2023-03-26T00:28:37;0.57;;;0.10;;
69523;SDS011;56723;42.694;23.286;2023-03-26T00:33:34;0.35;;;0.10;;
69523;SDS011;56723;42.694;23.286;2023-03-26T00:36:07;0.50;;;0.10;;
69523;SDS011;56723;42.694;23.286;2023-03-26T00:38:40;0.40;;;0.10;;
69523;SDS011;56723;42.694;23.286;2023-03-26T00:41:10;0.70;;;0.13;;
69523;SDS011;56723;42.694;23.286;2023-03-26T00:43:50;1.57;;;0.30;;
69523;SDS011;56723;42.694;23.286;2023-03-26T00:46:18;1.10;;;0.30;;
69523;SDS011;56723;42.694;23.286;2023-03-26T00:48:46;0.70;;;0.20;;
69523;SDS011;56723;42.694;23.286;2023-03-26T00:51:14;0.60;;;0.10;;
69523;SDS011;56723;42.694;23.286;2023-03-26T00:53:43;0.67;;;0.10;;
69523;SDS011;56723;42.694;23.286;2023-03-26T00:56:11;1.20;;;0.10;;
69523;SDS011;56723;42.694;23.286;2023-03-26T00:58:39;0.47;;;0.13;;
69523;SDS011;56723;42.694;23.286;2023-03-26T01:01:07;0.60;;;0.20;;
69523;SDS011;56723;42.694;23.286;2023-03-26T01:03:40;3.50;;;0.10;;
69523;SDS011;56723;42.694;23.286;2023-03-26T01:06:23;1.10;;;0.10;;
69523;SDS011;56723;42.694;23.286;2023-03-26T01:08:53;0.30;;;0.10;;
69523;SDS011;56723;42.694;23.286;2023-03-26T01:11:26;0.30;;;0.10;;
69523;SDS011;56723;42.694;23.286;2023-03-26T01:14:00;0.30;;;0.10;;
69523;SDS011;56723;42.694;23.286;2023-03-26T01:19:13;1.43;;;0.10;;
69523;SDS011;56723;42.694;23.286;2023-03-26T01:21:46;0.65;;;0.10;;
69523;SDS011;56723;42.694;23.286;2023-03-26T01:24:14;1.03;;;0.30;;
69523;SDS011;56723;42.694;23.286;2023-03-26T01:26:52;0.60;;;0.10;;
69523;SDS011;56723;42.694;23.286;2023-03-26T01:35:11;0.20;;;0.00;;
69523;SDS011;56723;42.694;23.286;2023-03-26T01:37:44;2.07;;;0.23;;
69523;SDS011;56723;42.694;23.286;2023-03-26T01:40:47;0.30;;;0.10;;
69523;SDS011;56723;42.694;23.286;2023-03-26T01:43:38;1.07;;;0.20;;
69523;SDS011;56723;42.694;23.286;2023-03-26T01:46:14;0.47;;;0.13;;
69523;SDS011;56723;42.694;23.286;2023-03-26T01:48:43;0.40;;;0.10;;
69523;SDS011;56723;42.694;23.286;2023-03-26T01:51:12;1.15;;;0.35;;
69523;SDS011;56723;42.694;23.286;2023-03-26T01:53:41;0.75;;;0.20;;
69523;SDS011;56723;42.694;23.286;2023-03-26T03:39:32;1.90;;;1.33;;
69523;SDS011;56723;42.694;23.286;2023-03-26T03:42:02;1.87;;;1.00;;
69523;SDS011;56723;42.694;23.286;2023-03-26T03:44:29;2.03;;;1.10;;
69523;SDS011;56723;42.694;23.286;2023-03-26T03:46:57;2.97;;;1.00;;
69523;SDS011;56723;42.694;23.286;2023-03-26T03:49:25;3.10;;;1.30;;
69523;SDS011;56723;42.694;23.286;2023-03-26T03:51:55;2.90;;;1.40;;
69523;SDS011;56723;42.694;23.286;2023-03-26T03:54:29;2.57;;;1.40;;
69523;SDS011;56723;42.694;23.286;2023-03-26T03:57:05;3.43;;;2.30;;
69523;SDS011;56723;42.694;23.286;2023-03-26T03:59:37;4.30;;;2.43;;
69523;SDS011;56723;42.694;23.286;2023-03-26T05:20:02;6.07;;;4.97;;
69523;SDS011;56723;42.694;23.286;2023-03-26T05:22:31;5.28;;;4.78;;
69523;SDS011;56723;42.694;23.286;2023-03-26T05:25:21;4.93;;;4.43;;
69523;SDS011;56723;42.694;23.286;2023-03-26T05:27:48;5.87;;;4.63;;
69523;SDS011;56723;42.694;23.286;2023-03-26T05:30:17;5.60;;;4.87;;
69523;SDS011;56723;42.694;23.286;2023-03-26T05:32:51;7.27;;;4.97;;
69523;SDS011;56723;42.694;23.286;2023-03-26T05:35:23;7.07;;;5.80;;
69523;SDS011;56723;42.694;23.286;2023-03-26T05:37:51;8.70;;;6.70;;
69523;SDS011;56723;42.694;23.286;2023-03-26T05:40:21;5.93;;;5.30;;
69523;SDS011;56723;42.694;23.286;2023-03-26T05:42:58;6.93;;;5.33;;
69523;SDS011;56723;42.694;23.286;2023-03-26T05:45:38;6.53;;;5.47;;
69523;SDS011;56723;42.694;23.286;2023-03-26T05:48:22;5.73;;;4.90;;
69523;SDS011;56723;42.694;23.286;2023-03-26T05:50:51;7.77;;;5.40;;
69523;SDS011;56723;42.694;23.286;2023-03-26T05:53:20;8.70;;;7.07;;
69523;SDS011;56723;42.694;23.286;2023-03-26T05:56:07;7.80;;;6.70;;
69523;SDS011;56723;42.694;23.286;2023-03-26T05:58:54;9.50;;;7.50;;
69523;SDS011;56723;42.694;23.286;2023-03-26T06:01:40;8.33;;;7.20;;
69523;SDS011;56723;42.694;23.286;2023-03-26T06:04:13;7.07;;;5.70;;
69523;SDS011;56723;42.694;23.286;2023-03-26T06:06:54;6.70;;;5.77;;
69523;SDS011;56723;42.694;23.286;2023-03-26T06:09:22;6.43;;;5.67;;
69523;SDS011;56723;42.694;23.286;2023-03-26T06:11:49;6.93;;;5.57;;
69523;SDS011;56723;42.694;23.286;2023-03-26T06:14:17;5.57;;;4.40;;
69523;SDS011;56723;42.694;23.286;2023-03-26T06:17:04;10.20;;;6.73;;
69523;SDS011;56723;42.694;23.286;2023-03-26T06:19:51;8.77;;;6.23;;
69523;SDS011;56723;42.694;23.286;2023-03-26T06:22:30;6.97;;;5.97;;
69523;SDS011;56723;42.694;23.286;2023-03-26T06:25:26;5.90;;;4.87;;
69523;SDS011;56723;42.694;23.286;2023-03-26T06:28:02;6.00;;;4.90;;
69523;SDS011;56723;42.694;23.286;2023-03-26T06:30:36;6.67;;;4.80;;
69523;SDS011;56723;42.694;23.286;2023-03-26T06:33:11;9.43;;;7.37;;
69523;SDS011;56723;42.694;23.286;2023-03-26T06:35:44;6.63;;;5.73;;
69523;SDS011;56723;42.694;23.286;2023-03-26T06:40:40;7.03;;;6.10;;
69523;SDS011;56723;42.694;23.286;2023-03-26T06:43:27;7.27;;;6.13;;
69523;SDS011;56723;42.694;23.286;2023-03-26T06:46:14;8.93;;;6.47;;
69523;SDS011;56723;42.694;23.286;2023-03-26T06:48:41;6.37;;;5.67;;
69523;SDS011;56723;42.694;23.286;2023-03-26T06:51:11;6.83;;;5.97;;
69523;SDS011;56723;42.694;23.286;2023-03-26T06:54:11;7.30;;;6.60;;
69523;SDS011;56723;42.694;23.286;2023-03-26T06:56:59;7.50;;;6.05;;
69523;SDS011;56723;42.694;23.286;2023-03-26T07:00:05;8.57;;;5.40;;
69523;SDS011;56723;42.694;23.286;2023-03-26T07:02:52;6.60;;;5.77;;
69523;SDS011;56723;42.694;23.286;2023-03-26T07:05:41;5.90;;;5.30;;
69523;SDS011;56723;42.694;23.286;2023-03-26T07:08:08;6.40;;;5.80;;
69523;SDS011;56723;42.694;23.286;2023-03-26T07:10:54;5.43;;;4.77;;
69523;SDS011;56723;42.694;23.286;2023-03-26T07:13:45;9.60;;;5.83;;
69523;SDS011;56723;42.694;23.286;2023-03-26T07:16:32;7.65;;;5.18;;
69523;SDS011;56723;42.694;23.286;2023-03-26T07:19:32;6.40;;;5.17;;
69523;SDS011;56723;42.694;23.286;2023-03-26T07:21:59;8.47;;;6.57;;
69523;SDS011;56723;42.694;23.286;2023-03-26T07:24:56;5.67;;;5.17;;
69523;SDS011;56723;42.694;23.286;2023-03-26T07:36:29;5.22;;;4.40;;
69523;SDS011;56723;42.694;23.286;2023-03-26T07:39:31;5.32;;;4.43;;
69523;SDS011;56723;42.694;23.286;2023-03-26T07:45:55;4.70;;;4.20;;
69523;SDS011;56723;42.694;23.286;2023-03-26T07:48:44;4.90;;;4.05;;
69523;SDS011;56723;42.694;23.286;2023-03-26T07:51:38;7.03;;;4.43;;
69523;SDS011;56723;42.694;23.286;2023-03-26T07:54:12;4.28;;;3.88;;
69523;SDS011;56723;42.694;23.286;2023-03-26T07:57:13;5.35;;;3.75;;
69523;SDS011;56723;42.694;23.286;2023-03-26T08:00:16;4.07;;;3.67;;
69523;SDS011;56723;42.694;23.286;2023-03-26T08:06:18;2.47;;;1.95;;
69523;SDS011;56723;42.694;23.286;2023-03-26T08:15:33;4.72;;;3.53;;
69523;SDS011;56723;42.694;23.286;2023-03-26T08:29:37;3.80;;;2.50;;
69523;SDS011;56723;42.694;23.286;2023-03-26T08:32:15;3.42;;;3.13;;
69523;SDS011;56723;42.694;23.286;2023-03-26T08:34:44;2.70;;;1.98;;
69523;SDS011;56723;42.694;23.286;2023-03-26T08:37:12;2.92;;;2.58;;
69523;SDS011;56723;42.694;23.286;2023-03-26T08:39:39;2.63;;;2.08;;
69523;SDS011;56723;42.694;23.286;2023-03-26T08:42:17;1.98;;;1.77;;
69523;SDS011;56723;42.694;23.286;2023-03-26T08:45:13;3.78;;;3.13;;
69523;SDS011;56723;42.694;23.286;2023-03-26T08:55:51;2.10;;;1.60;;
69523;SDS011;56723;42.694;23.286;2023-03-26T09:02:09;3.83;;;1.83;;
69523;SDS011;56723;42.694;23.286;2023-03-26T09:04:20;2.45;;;1.80;;
69523;SDS011;56723;42.694;23.286;2023-03-26T09:10:00;2.17;;;1.40;;
69523;SDS011;56723;42.694;23.286;2023-03-26T09:24:59;1.75;;;1.13;;
69523;SDS011;56723;42.694;23.286;2023-03-26T09:40:47;2.78;;;0.88;;
69523;SDS011;56723;42.694;23.286;2023-03-26T09:45:59;1.55;;;0.50;;
69523;SDS011;56723;42.694;23.286;2023-03-26T10:14:02;2.33;;;0.20;;
69523;SDS011;56723;42.694;23.286;2023-03-26T10:16:49;1.55;;;0.40;;
69523;SDS011;56723;42.694;23.286;2023-03-26T10:19:55;1.63;;;0.25;;
69523;SDS011;56723;42.694;23.286;2023-03-26T10:25:28;1.23;;;0.30;;
69523;SDS011;56723;42.694;23.286;2023-03-26T10:53:53;0.40;;;0.10;;
69523;SDS011;56723;42.694;23.286;2023-03-26T10:56:31;2.35;;;0.25;;
69523;SDS011;56723;42.694;23.286;2023-03-26T10:59:24;1.02;;;0.20;;
69523;SDS011;56723;42.694;23.286;2023-03-26T11:02:03;1.63;;;0.20;;
69523;SDS011;56723;42.694;23.286;2023-03-26T11:08:05;0.70;;;0.10;;
69523;SDS011;56723;42.694;23.286;2023-03-26T11:11:00;1.00;;;0.20;;
69523;SDS011;56723;42.694;23.286;2023-03-26T11:13:44;1.25;;;0.20;;
69523;SDS011;56723;42.694;23.286;2023-03-26T11:19:11;2.67;;;0.13;;
69523;SDS011;56723;42.694;23.286;2023-03-26T11:21:54;1.27;;;0.20;;
69523;SDS011;56723;42.694;23.286;2023-03-26T11:24:36;0.75;;;0.20;;
69523;SDS011;56723;42.694;23.286;2023-03-26T11:27:06;0.60;;;0.20;;
69523;SDS011;56723;42.694;23.286;2023-03-26T11:30:10;0.88;;;0.20;;
69523;SDS011;56723;42.694;23.286;2023-03-26T11:32:49;0.73;;;0.10;;
69523;SDS011;56723;42.694;23.286;2023-03-26T11:35:40;0.70;;;0.20;;
69523;SDS011;56723;42.694;23.286;2023-03-26T11:38:27;0.30;;;0.10;;
69523;SDS011;56723;42.694;23.286;2023-03-26T11:40:59;0.77;;;0.10;;
69523;SDS011;56723;42.694;23.286;2023-03-26T11:43:56;0.40;;;0.10;;
69523;SDS011;56723;42.694;23.286;2023-03-26T11:46:29;0.40;;;0.10;;
69523;SDS011;56723;42.694;23.286;2023-03-26T11:49:00;0.90;;;0.20;;
69523;SDS011;56723;42.694;23.286;2023-03-26T11:51:35;1.17;;;0.10;;
69523;SDS011;56723;42.694;23.286;2023-03-26T11:56:36;0.60;;;0.10;;
69523;SDS011;56723;42.694;23.286;2023-03-26T11:59:28;1.73;;;0.35;;
69523;SDS011;56723;42.694;23.286;2023-03-26T12:02:16;0.60;;;0.20;;
69523;SDS011;56723;42.694;23.286;2023-03-26T12:04:50;1.35;;;0.30;;
69523;SDS011;56723;42.694;23.286;2023-03-26T12:07:22;1.63;;;0.32;;
69523;SDS011;56723;42.694;23.286;2023-03-26T12:10:00;2.83;;;0.30;;
69523;SDS011;56723;42.694;23.286;2023-03-26T12:12:45;0.60;;;0.10;;
69523;SDS011;56723;42.694;23.286;2023-03-26T12:15:13;0.50;;;0.10;;
69523;SDS011;56723;42.694;23.286;2023-03-26T12:17:42;0.30;;;0.10;;
69523;SDS011;56723;42.694;23.286;2023-03-26T12:22:53;1.30;;;0.20;;
69523;SDS011;56723;42.694;23.286;2023-03-26T12:25:36;0.50;;;0.10;;
69523;SDS011;56723;42.694;23.286;2023-03-26T12:30:56;0.55;;;0.10;;
69523;SDS011;56723;42.694;23.286;2023-03-26T12:33:27;1.08;;;0.10;;
69523;SDS011;56723;42.694;23.286;2023-03-26T12:39:19;43.75;;;36.38;;
69523;SDS011;56723;42.694;23.286;2023-03-26T12:42:27;1.63;;;1.30;;
69523;SDS011;56723;42.694;23.286;2023-03-26T12:45:19;2.95;;;0.10;;
69523;SDS011;56723;42.694;23.286;2023-03-26T12:47:50;1.13;;;0.10;;
69523;SDS011;56723;42.694;23.286;2023-03-26T12:50:38;0.70;;;0.10;;
69523;SDS011;56723;42.694;23.286;2023-03-26T12:56:12;1.27;;;0.10;;
69523;SDS011;56723;42.694;23.286;2023-03-26T13:01:56;0.30;;;0.05;;
69523;SDS011;56723;42.694;23.286;2023-03-26T13:15:25;0.47;;;0.20;;
69523;SDS011;56723;42.694;23.286;2023-03-26T13:23:41;0.70;;;0.10;;
69523;SDS011;56723;42.694;23.286;2023-03-26T13:29:14;1.77;;;0.10;;
69523;SDS011;56723;42.694;23.286;2023-03-26T13:34:34;0.55;;;0.00;;
69523;SDS011;56723;42.694;23.286;2023-03-26T13:40:14;0.17;;;0.00;;
69523;SDS011;56723;42.694;23.286;2023-03-26T13:56:51;0.20;;;0.05;;
69523;SDS011;56723;42.694;23.286;2023-03-26T13:59:27;1.15;;;0.10;;
69523;SDS011;56723;42.694;23.286;2023-03-26T14:02:04;0.30;;;0.10;;
69523;SDS011;56723;42.694;23.286;2023-03-26T14:04:55;1.27;;;0.10;;
69523;SDS011;56723;42.694;23.286;2023-03-26T14:07:33;0.57;;;0.10;;
69523;SDS011;56723;42.694;23.286;2023-03-26T14:10:09;0.57;;;0.10;;
69523;SDS011;56723;42.694;23.286;2023-03-26T14:12:59;0.43;;;0.10;;
69523;SDS011;56723;42.694;23.286;2023-03-26T14:15:43;1.27;;;0.10;;
69523;SDS011;56723;42.694;23.286;2023-03-26T14:18:22;1.65;;;0.10;;
69523;SDS011;56723;42.694;23.286;2023-03-26T14:24:00;0.75;;;0.10;;
69523;SDS011;56723;42.694;23.286;2023-03-26T14:40:56;1.00;;;0.10;;
69523;SDS011;56723;42.694;23.286;2023-03-26T14:43:47;0.50;;;0.10;;
69523;SDS011;56723;42.694;23.286;2023-03-26T14:52:21;0.70;;;0.20;;
69523;SDS011;56723;42.694;23.286;2023-03-26T15:09:38;0.40;;;0.25;;
69523;SDS011;56723;42.694;23.286;2023-03-26T15:18:58;1.33;;;0.32;;
69523;SDS011;56723;42.694;23.286;2023-03-26T15:22:18;1.83;;;0.30;;
69523;SDS011;56723;42.694;23.286;2023-03-26T15:27:56;0.82;;;0.10;;
69523;SDS011;56723;42.694;23.286;2023-03-26T15:31:00;0.90;;;0.10;;
69523;SDS011;56723;42.694;23.286;2023-03-26T15:54:49;0.63;;;0.13;;
69523;SDS011;56723;42.694;23.286;2023-03-26T15:57:31;1.08;;;0.20;;
69523;SDS011;56723;42.694;23.286;2023-03-26T16:11:12;1.00;;;0.20;;
69523;SDS011;56723;42.694;23.286;2023-03-26T16:13:41;1.67;;;0.30;;
69523;SDS011;56723;42.694;23.286;2023-03-26T16:24:32;1.92;;;0.28;;
69523;SDS011;56723;42.694;23.286;2023-03-26T16:32:56;4.05;;;0.60;;
69523;SDS011;56723;42.694;23.286;2023-03-26T16:35:37;2.22;;;1.10;;
69523;SDS011;56723;42.694;23.286;2023-03-26T16:38:54;4.07;;;1.02;;
69523;SDS011;56723;42.694;23.286;2023-03-26T16:41:26;3.65;;;0.60;;
69523;SDS011;56723;42.694;23.286;2023-03-26T16:44:05;3.05;;;0.60;;
69523;SDS011;56723;42.694;23.286;2023-03-26T16:46:55;4.35;;;1.35;;
69523;SDS011;56723;42.694;23.286;2023-03-26T17:00:48;10.98;;;7.70;;
69523;SDS011;56723;42.694;23.286;2023-03-26T17:03:43;15.07;;;9.40;;
69523;SDS011;56723;42.694;23.286;2023-03-26T17:22:13;6.03;;;3.20;;
69523;SDS011;56723;42.694;23.286;2023-03-26T17:33:28;13.60;;;5.18;;
69523;SDS011;56723;42.694;23.286;2023-03-26T17:41:08;11.73;;;6.53;;
69523;SDS011;56723;42.694;23.286;2023-03-26T17:46:11;14.73;;;7.93;;
69523;SDS011;56723;42.694;23.286;2023-03-26T17:48:51;14.02;;;7.85;;
69523;SDS011;56723;42.694;23.286;2023-03-26T17:51:50;12.40;;;5.45;;
69523;SDS011;56723;42.694;23.286;2023-03-26T17:56:58;12.65;;;5.45;;
69523;SDS011;56723;42.694;23.286;2023-03-26T17:59:29;12.80;;;5.68;;
69523;SDS011;56723;42.694;23.286;2023-03-26T18:01:59;11.00;;;5.03;;
69523;SDS011;56723;42.694;23.286;2023-03-26T18:04:38;8.65;;;4.72;;
69523;SDS011;56723;42.694;23.286;2023-03-26T18:13:13;10.43;;;5.22;;
69523;SDS011;56723;42.694;23.286;2023-03-26T18:18:21;9.05;;;4.18;;
69523;SDS011;56723;42.694;23.286;2023-03-26T18:20:53;10.40;;;4.75;;
69523;SDS011;56723;42.694;23.286;2023-03-26T18:23:24;8.93;;;4.47;;
69523;SDS011;56723;42.694;23.286;2023-03-26T18:26:10;9.07;;;3.95;;
69523;SDS011;56723;42.694;23.286;2023-03-26T18:28:43;9.75;;;4.40;;
69523;SDS011;56723;42.694;23.286;2023-03-26T18:31:18;14.68;;;8.65;;
69523;SDS011;56723;42.694;23.286;2023-03-26T18:33:51;13.30;;;4.85;;
69523;SDS011;56723;42.694;23.286;2023-03-26T18:36:22;11.23;;;5.78;;
69523;SDS011;56723;42.694;23.286;2023-03-26T18:38:59;11.63;;;6.47;;
69523;SDS011;56723;42.694;23.286;2023-03-26T18:41:30;13.82;;;5.00;;
69523;SDS011;56723;42.694;23.286;2023-03-26T18:44:03;8.77;;;4.30;;
69523;SDS011;56723;42.694;23.286;2023-03-26T18:49:00;7.82;;;4.28;;
69523;SDS011;56723;42.694;23.286;2023-03-26T18:51:29;7.03;;;3.63;;
69523;SDS011;56723;42.694;23.286;2023-03-26T18:54:02;9.90;;;4.03;;
69523;SDS011;56723;42.694;23.286;2023-03-26T18:56:33;8.98;;;3.83;;
69523;SDS011;56723;42.694;23.286;2023-03-26T18:59:03;6.85;;;3.78;;
69523;SDS011;56723;42.694;23.286;2023-03-26T19:01:33;6.35;;;3.70;;
69523;SDS011;56723;42.694;23.286;2023-03-26T19:04:04;7.68;;;3.40;;
69523;SDS011;56723;42.694;23.286;2023-03-26T19:06:33;7.28;;;3.15;;
69523;SDS011;56723;42.694;23.286;2023-03-26T19:09:04;5.68;;;3.03;;
69523;SDS011;56723;42.694;23.286;2023-03-26T19:11:54;5.57;;;2.63;;
69523;SDS011;56723;42.694;23.286;2023-03-26T19:14:23;7.25;;;3.03;;
69523;SDS011;56723;42.694;23.286;2023-03-26T19:16:54;4.88;;;2.63;;
69523;SDS011;56723;42.694;23.286;2023-03-26T19:19:27;5.97;;;2.58;;
69523;SDS011;56723;42.694;23.286;2023-03-26T19:21:57;5.82;;;2.40;;
69523;SDS011;56723;42.694;23.286;2023-03-26T19:24:31;4.13;;;2.40;;
69523;SDS011;56723;42.694;23.286;2023-03-26T19:27:26;6.32;;;3.47;;
69523;SDS011;56723;42.694;23.286;2023-03-26T19:33:10;10.05;;;3.45;;
69523;SDS011;56723;42.694;23.286;2023-03-26T19:35:44;5.82;;;2.13;;
69523;SDS011;56723;42.694;23.286;2023-03-26T19:38:23;4.20;;;2.08;;
69523;SDS011;56723;42.694;23.286;2023-03-26T19:40:56;4.47;;;2.38;;
69523;SDS011;56723;42.694;23.286;2023-03-26T19:43:55;4.18;;;2.55;;
69523;SDS011;56723;42.694;23.286;2023-03-26T19:46:26;6.65;;;2.38;;
69523;SDS011;56723;42.694;23.286;2023-03-26T19:48:55;5.93;;;3.08;;
69523;SDS011;56723;42.694;23.286;2023-03-26T19:51:24;4.07;;;1.92;;
69523;SDS011;56723;42.694;23.286;2023-03-26T19:54:10;5.05;;;2.47;;
69523;SDS011;56723;42.694;23.286;2023-03-26T19:56:41;4.60;;;2.13;;
69523;SDS011;56723;42.694;23.286;2023-03-26T19:59:09;5.00;;;1.95;;
69523;SDS011;56723;42.694;23.286;2023-03-26T20:01:36;5.25;;;2.70;;
69523;SDS011;56723;42.694;23.286;2023-03-26T20:04:04;6.25;;;3.00;;
69523;SDS011;56723;42.694;23.286;2023-03-26T20:06:32;7.88;;;2.78;;
69523;SDS011;56723;42.694;23.286;2023-03-26T20:09:12;7.22;;;3.28;;
69523;SDS011;56723;42.694;23.286;2023-03-26T20:11:53;9.50;;;3.78;;
69523;SDS011;56723;42.694;23.286;2023-03-26T20:14:21;26.70;;;15.38;;
69523;SDS011;56723;42.694;23.286;2023-03-26T20:16:53;5.25;;;2.90;;
69523;SDS011;56723;42.694;23.286;2023-03-26T20:19:20;5.57;;;2.90;;
69523;SDS011;56723;42.694;23.286;2023-03-26T20:21:48;5.20;;;2.50;;
69523;SDS011;56723;42.694;23.286;2023-03-26T20:24:17;7.18;;;3.00;;
69523;SDS011;56723;42.694;23.286;2023-03-26T20:26:44;7.87;;;4.03;;
69523;SDS011;56723;42.694;23.286;2023-03-26T20:29:12;6.00;;;2.67;;
69523;SDS011;56723;42.694;23.286;2023-03-26T20:31:41;7.80;;;3.27;;
69523;SDS011;56723;42.694;23.286;2023-03-26T20:34:19;29.33;;;15.87;;
69523;SDS011;56723;42.694;23.286;2023-03-26T20:36:49;40.20;;;22.43;;
69523;SDS011;56723;42.694;23.286;2023-03-26T20:39:26;51.93;;;32.27;;
69523;SDS011;56723;42.694;23.286;2023-03-26T20:41:55;70.10;;;35.80;;
69523;SDS011;56723;42.694;23.286;2023-03-26T20:44:22;56.67;;;34.33;;
69523;SDS011;56723;42.694;23.286;2023-03-26T20:46:52;65.87;;;37.33;;
69523;SDS011;56723;42.694;23.286;2023-03-26T20:49:21;63.80;;;38.67;;
69523;SDS011;56723;42.694;23.286;2023-03-26T20:51:48;60.83;;;36.93;;
69523;SDS011;56723;42.694;23.286;2023-03-26T20:54:19;57.07;;;32.60;;
69523;SDS011;56723;42.694;23.286;2023-03-26T20:56:49;45.33;;;27.07;;
69523;SDS011;56723;42.694;23.286;2023-03-26T20:59:18;44.40;;;27.50;;
69523;SDS011;56723;42.694;23.286;2023-03-26T21:01:52;43.43;;;24.10;;
69523;SDS011;56723;42.694;23.286;2023-03-26T21:04:22;52.67;;;27.77;;
69523;SDS011;56723;42.694;23.286;2023-03-26T21:06:50;50.87;;;27.50;;
69523;SDS011;56723;42.694;23.286;2023-03-26T21:09:29;40.33;;;23.85;;
69523;SDS011;56723;42.694;23.286;2023-03-26T21:12:04;41.20;;;25.27;;
69523;SDS011;56723;42.694;23.286;2023-03-26T21:14:42;41.83;;;23.47;;
69523;SDS011;56723;42.694;23.286;2023-03-26T21:17:14;33.03;;;19.43;;
69523;SDS011;56723;42.694;23.286;2023-03-26T21:19:43;34.27;;;21.47;;
69523;SDS011;56723;42.694;23.286;2023-03-26T21:22:16;33.83;;;18.70;;
69523;SDS011;56723;42.694;23.286;2023-03-26T21:30:10;29.77;;;16.83;;
69523;SDS011;56723;42.694;23.286;2023-03-26T21:32:42;31.00;;;16.60;;
69523;SDS011;56723;42.694;23.286;2023-03-26T21:35:11;48.97;;;24.50;;
69523;SDS011;56723;42.694;23.286;2023-03-26T21:37:41;41.37;;;23.30;;
69523;SDS011;56723;42.694;23.286;2023-03-26T21:40:13;41.90;;;24.27;;
69523;SDS011;56723;42.694;23.286;2023-03-26T21:42:43;32.67;;;18.93;;
69523;SDS011;56723;42.694;23.286;2023-03-26T21:45:12;38.70;;;21.93;;
69523;SDS011;56723;42.694;23.286;2023-03-26T21:47:40;31.63;;;17.80;;
69523;SDS011;56723;42.694;23.286;2023-03-26T21:50:08;34.90;;;20.50;;
69523;SDS011;56723;42.694;23.286;2023-03-26T21:52:37;36.37;;;21.57;;
69523;SDS011;56723;42.694;23.286;2023-03-26T21:55:13;60.37;;;36.60;;
69523;SDS011;56723;42.694;23.286;2023-03-26T22:08:51;50.53;;;25.97;;
69523;SDS011;56723;42.694;23.286;2023-03-26T22:11:18;46.00;;;25.93;;
69523;SDS011;56723;42.694;23.286;2023-03-26T22:13:45;45.43;;;26.07;;
69523;SDS011;56723;42.694;23.286;2023-03-26T22:16:12;41.33;;;24.27;;
69523;SDS011;56723;42.694;23.286;2023-03-26T22:18:39;46.07;;;26.20;;
69523;SDS011;56723;42.694;23.286;2023-03-26T22:21:09;46.60;;;25.23;;
69523;SDS011;56723;42.694;23.286;2023-03-26T22:23:36;44.43;;;27.47;;
69523;SDS011;56723;42.694;23.286;2023-03-26T22:26:04;43.77;;;24.93;;
69523;SDS011;56723;42.694;23.286;2023-03-26T22:28:31;46.93;;;26.77;;
69523;SDS011;56723;42.694;23.286;2023-03-26T22:31:03;52.63;;;30.33;;
69523;SDS011;56723;42.694;23.286;2023-03-26T22:33:34;43.00;;;26.27;;
69523;SDS011;56723;42.694;23.286;2023-03-26T22:36:01;40.13;;;25.77;;
69523;SDS011;56723;42.694;23.286;2023-03-26T22:38:28;39.60;;;24.17;;
69523;SDS011;56723;42.694;23.286;2023-03-26T22:40:56;51.97;;;31.27;;
69523;SDS011;56723;42.694;23.286;2023-03-26T22:43:23;43.33;;;24.17;;
69523;SDS011;56723;42.694;23.286;2023-03-26T22:45:50;43.50;;;24.30;;
69523;SDS011;56723;42.694;23.286;2023-03-26T22:48:20;40.05;;;22.10;;
69523;SDS011;56723;42.694;23.286;2023-03-26T22:53:24;32.67;;;19.47;;
69523;SDS011;56723;42.694;23.286;2023-03-26T22:55:51;35.10;;;21.13;;
69523;SDS011;56723;42.694;23.286;2023-03-26T22:58:18;39.73;;;23.27;;
69523;SDS011;56723;42.694;23.286;2023-03-26T23:00:45;43.47;;;24.87;;
69523;SDS011;56723;42.694;23.286;2023-03-26T23:03:12;35.07;;;18.73;;
69523;SDS011;56723;42.694;23.286;2023-03-26T23:05:39;29.10;;;15.70;;
69523;SDS011;56723;42.694;23.286;2023-03-26T23:08:06;35.57;;;20.77;;
69523;SDS011;56723;42.694;23.286;2023-03-26T23:10:33;33.30;;;18.80;;
69523;SDS011;56723;42.694;23.286;2023-03-26T23:13:01;40.03;;;24.03;;
69523;SDS011;56723;42.694;23.286;2023-03-26T23:15:28;40.67;;;22.43;;
69523;SDS011;56723;42.694;23.286;2023-03-26T23:17:56;39.37;;;22.33;;
69523;SDS011;56723;42.694;23.286;2023-03-26T23:20:24;34.53;;;19.70;;
69523;SDS011;56723;42.694;23.286;2023-03-26T23:22:51;34.17;;;19.87;;
69523;SDS011;56723;42.694;23.286;2023-03-26T23:25:18;35.83;;;21.57;;
69523;SDS011;56723;42.694;23.286;2023-03-26T23:27:45;36.80;;;21.03;;
69523;SDS011;56723;42.694;23.286;2023-03-26T23:30:13;34.77;;;20.03;;
69523;SDS011;56723;42.694;23.286;2023-03-26T23:32:42;36.40;;;20.60;;
69523;SDS011;56723;42.694;23.286;2023-03-26T23:35:09;33.13;;;20.07;;
69523;SDS011;56723;42.694;23.286;2023-03-26T23:37:36;37.47;;;21.43;;
69523;SDS011;56723;42.694;23.286;2023-03-26T23:40:03;33.63;;;19.20;;
69523;SDS011;56723;42.694;23.286;2023-03-26T23:42:36;28.17;;;15.87;;
69523;SDS011;56723;42.694;23.286;2023-03-26T23:45:04;30.27;;;17.43;;
69523;SDS011;56723;42.694;23.286;2023-03-26T23:47:32;28.27;;;16.63;;
69523;SDS011;56723;42.694;23.286;2023-03-26T23:50:00;33.73;;;17.43;;
69523;SDS011;56723;42.694;23.286;2023-03-26T23:52:30;30.80;;;19.03;;
69523;SDS011;56723;42.694;23.286;2023-03-26T23:54:57;31.00;;;17.60;;
69523;SDS011;56723;42.694;23.286;2023-03-26T23:57:27;31.53;;;18.40;;
69523;SDS011;56723;42.694;23.286;2023-03-26T23:59:55;34.57;;;17.60;;
